Time;durP1;ratioP1;P1;durP2;ratioP2;P2;SDS_P1;SDS_P2;PMS_P1;PMS_P2;Temp;Humidity;BMP_temperature;BMP_pressure;BME280_temperature;BME280_humidity;BME280_pressure;Samples;Min_cycle;Max_cycle;Signal;HPM_P1;HPM_P2
2022/06/14 07:28:00;;;;;;;3.03;2.10;;;;;;;;;;6312766;22;20018;-95
2022/06/14 08:02:13;;;;;;;2.40;2.20;;;;;;;;;;6236394;22;20085;-86
2022/06/14 08:04:50;;;;;;;2.95;2.50;;;;;;;;;;6207910;22;20490;-75
2022/06/14 08:07:21;;;;;;;2.65;2.40;;;;;;;;;;6277795;22;20000;-76
2022/06/14 08:10:00;;;;;;;4.18;2.67;;;;;;;;;;6252400;22;20019;-77
2022/06/14 08:12:47;;;;;;;2.70;2.50;;;;;;;;;;6246958;22;20000;-76
2022/06/14 08:15:37;;;;;;;10.55;3.22;;;;;;;;;;6247054;23;20007;-79
2022/06/14 08:18:16;;;;;;;20.52;3.63;;;;;;;;;;6247169;22;20023;-80
2022/06/14 08:20:56;;;;;;;2.30;2.10;;;;;;;;;;6247081;23;20004;-77
2022/06/14 08:23:27;;;;;;;2.60;2.40;;;;;;;;;;6247151;23;20332;-75
2022/06/14 08:26:03;;;;;;;3.38;2.65;;;;;;;;;;6246625;23;20008;-74
2022/06/14 08:28:36;;;;;;;3.90;2.70;;;;;;;;;;6246784;22;20450;-73
2022/06/14 08:31:30;;;;;;;2.40;2.20;;;;;;;;;;6247158;23;20075;-79
2022/06/14 08:34:38;;;;;;;3.00;2.80;;;;;;;;;;6215961;23;20344;-81
2022/06/14 08:37:09;;;;;;;;;;;;;;;;;;6154891;23;20462;-80
2022/06/14 08:39:42;;;;;;;2.50;2.00;;;;;;;;;;6154103;23;19905;-80
2022/06/14 08:42:34;;;;;;;2.72;1.95;;;;;;;;;;6154351;23;20113;-77
2022/06/14 08:45:10;;;;;;;2.58;1.90;;;;;;;;;;6154123;23;20557;-77
2022/06/14 08:47:58;;;;;;;1.92;1.73;;;;;;;;;;6154369;23;20002;-77
2022/06/14 08:51:11;;;;;;;2.90;2.20;;;;;;;;;;6154071;23;20009;-81
2022/06/14 08:54:01;;;;;;;2.40;2.20;;;;;;;;;;6134384;23;20009;-79
2022/06/14 08:56:50;;;;;;;3.15;2.70;;;;;;;;;;6154230;23;20009;-80
2022/06/14 08:59:27;;;;;;;2.53;2.33;;;;;;;;;;6129211;23;20005;-80
2022/06/14 09:02:16;;;;;;;2.50;2.30;;;;;;;;;;6154017;23;20038;-78
2022/06/14 09:04:47;;;;;;;2.85;2.00;;;;;;;;;;6153883;23;20020;-80
2022/06/14 09:07:58;;;;;;;2.40;2.20;;;;;;;;;;6153672;23;20136;-80
2022/06/14 09:10:45;;;;;;;2.40;2.20;;;;;;;;;;6153898;23;20010;-81
2022/06/14 09:13:25;;;;;;;2.63;2.42;;;;;;;;;;6162753;23;20017;-85
2022/06/14 09:16:10;;;;;;;2.95;2.70;;;;;;;;;;6246373;23;20076;-80
2022/06/14 09:18:38;;;;;;;2.60;2.40;;;;;;;;;;6246307;22;20004;-82
2022/06/14 09:21:41;;;;;;;4.37;2.73;;;;;;;;;;6246449;23;20005;-83
2022/06/14 09:24:28;;;;;;;2.90;2.45;;;;;;;;;;6246203;23;20273;-81
2022/06/14 09:27:26;;;;;;;3.40;2.55;;;;;;;;;;6246292;23;20446;-82
2022/06/14 09:30:05;;;;;;;3.50;2.73;;;;;;;;;;6219469;23;20016;-82
2022/06/14 09:33:10;;;;;;;4.25;2.72;;;;;;;;;;6246236;23;20242;-82
2022/06/14 09:36:03;;;;;;;3.92;2.85;;;;;;;;;;6246271;23;20058;-81
2022/06/14 09:38:50;;;;;;;2.60;2.40;;;;;;;;;;6246299;22;20004;-82
2022/06/14 09:41:40;;;;;;;3.10;2.78;;;;;;;;;;6247042;23;20030;-81
2022/06/14 09:44:21;;;;;;;2.65;2.40;;;;;;;;;;6246806;23;20362;-82
2022/06/14 09:47:02;;;;;;;3.65;3.35;;;;;;;;;;6246241;23;20074;-79
2022/06/14 09:49:42;;;;;;;2.63;2.42;;;;;;;;;;6246190;22;20004;-81
2022/06/14 09:52:45;;;;;;;3.25;2.85;;;;;;;;;;6246544;23;20000;-77
2022/06/14 09:55:49;;;;;;;3.47;3.00;;;;;;;;;;6246682;23;20490;-82
2022/06/14 09:58:53;;;;;;;3.38;3.08;;;;;;;;;;6246154;22;20007;-82
2022/06/14 10:02:20;;;;;;;4.72;3.53;;;;;;;;;;6219944;23;20004;-81
2022/06/14 10:05:16;;;;;;;3.80;2.90;;;;;;;;;;6118562;23;20024;-83
2022/06/14 10:07:41;;;;;;;2.92;2.70;;;;;;;;;;6246830;23;20000;-83
2022/06/14 10:10:15;;;;;;;3.55;2.80;;;;;;;;;;6248502;22;19996;-80
2022/06/14 10:13:22;;;;;;;3.88;3.17;;;;;;;;;;6220046;23;20008;-85
2022/06/14 10:16:11;;;;;;;3.42;3.10;;;;;;;;;;6154676;23;20085;-85
2022/06/14 10:19:03;;;;;;;3.90;3.50;;;;;;;;;;6219858;23;20004;-83
2022/06/14 10:21:52;;;;;;;4.53;3.40;;;;;;;;;;6238073;23;20008;-81
2022/06/14 10:24:24;;;;;;;3.83;3.50;;;;;;;;;;6250029;23;20004;-79
2022/06/14 10:29:57;;;;;;;5.63;3.55;;;;;;;;;;6249781;22;20022;-88
2022/06/14 10:32:32;;;;;;;3.60;3.25;;;;;;;;;;6249519;23;20004;-80
2022/06/14 10:35:06;;;;;;;3.60;3.30;;;;;;;;;;6249887;23;20031;-82
2022/06/14 10:38:02;;;;;;;3.75;3.45;;;;;;;;;;6251382;23;20327;-84
2022/06/14 10:40:43;;;;;;;6.68;3.13;;;;;;;;;;6250865;23;20434;-80
2022/06/14 10:43:55;;;;;;;2.97;2.78;;;;;;;;;;6252477;23;20004;-82
2022/06/14 10:46:33;;;;;;;4.00;3.08;;;;;;;;;;6204093;23;20008;-89
2022/06/14 10:49:01;;;;;;;3.20;3.00;;;;;;;;;;6253076;22;20004;-88
2022/06/14 10:51:42;;;;;;;3.22;3.00;;;;;;;;;;6225278;23;20007;-94
2022/06/14 10:54:16;;;;;;;3.53;3.22;;;;;;;;;;6248857;23;20000;-87
2022/06/14 10:56:48;;;;;;;3.55;3.30;;;;;;;;;;6248427;23;20000;-86
2022/06/14 10:59:42;;;;;;;5.00;3.30;;;;;;;;;;6247639;22;20004;-89
2022/06/14 11:02:35;;;;;;;3.92;3.50;;;;;;;;;;6253495;22;20019;-90
2022/06/14 11:05:25;;;;;;;3.75;3.45;;;;;;;;;;6250471;22;20494;-86
2022/06/14 11:08:16;;;;;;;3.50;3.25;;;;;;;;;;6277284;22;20113;-89
2022/06/14 11:11:13;;;;;;;3.72;3.35;;;;;;;;;;6277441;22;20292;-89
2022/06/14 11:13:57;;;;;;;3.30;3.00;;;;;;;;;;6276716;22;20394;-86
2022/06/14 11:16:46;;;;;;;3.45;2.72;;;;;;;;;;6276773;22;20007;-90
2022/06/14 11:19:30;;;;;;;;;;;;;;;;;;6276766;22;20000;-84
2022/06/14 11:22:08;;;;;;;2.88;2.67;;;;;;;;;;6277213;22;20293;-89
2022/06/14 11:24:47;;;;;;;3.63;3.28;;;;;;;;;;6277059;22;20003;-88
2022/06/14 11:27:12;;;;;;;;;;;;;;;;;;6277581;22;19999;-88
2022/06/14 11:29:57;;;;;;;2.70;2.50;;;;;;;;;;6276141;22;20029;-89
2022/06/14 11:32:53;;;;;;;3.85;2.67;;;;;;;;;;6277342;22;20007;-92
2022/06/14 11:35:50;;;;;;;3.67;2.60;;;;;;;;;;6276610;22;20004;-85
2022/06/14 11:38:47;;;;;;;5.15;2.90;;;;;;;;;;6276326;22;20074;-83
2022/06/14 11:41:17;;;;;;;4.13;3.30;;;;;;;;;;6249947;22;20008;-84
2022/06/14 11:44:17;;;;;;;3.97;2.90;;;;;;;;;;6276421;22;20008;-85
2022/06/14 17:30:51;;;;;;;3.90;3.45;;;;;;;;;;6224355;22;1145107;-78
2022/06/14 17:33:31;;;;;;;7.65;4.55;;;;;;;;;;6277380;22;20011;-79
2022/06/14 17:36:04;;;;;;;4.07;3.47;;;;;;;;;;6277100;22;20011;-83
2022/06/14 17:38:39;;;;;;;5.25;4.13;;;;;;;;;;6276434;22;20010;-88
2022/06/14 17:41:18;;;;;;;5.22;3.85;;;;;;;;;;6308224;22;20046;-90
2022/06/14 17:43:46;;;;;;;5.38;4.90;;;;;;;;;;6308210;22;20436;-88
2022/06/14 17:46:25;;;;;;;3.97;3.67;;;;;;;;;;6310836;22;19999;-91
2022/06/14 17:48:53;;;;;;;4.43;4.00;;;;;;;;;;6314808;22;20418;-88
2022/06/14 17:51:35;;;;;;;6.50;3.88;;;;;;;;;;6310418;22;20007;-90
2022/06/14 17:54:38;;;;;;;8.38;6.43;;;;;;;;;;6312996;22;19995;-92
2022/06/14 17:57:31;;;;;;;8.23;6.80;;;;;;;;;;6309230;22;20049;-89
2022/06/14 18:00:17;;;;;;;7.53;5.30;;;;;;;;;;6280667;22;20303;-88
2022/06/14 18:02:58;;;;;;;3.78;3.33;;;;;;;;;;6308598;22;20021;-85
2022/06/14 18:05:43;;;;;;;3.80;3.50;;;;;;;;;;6308265;22;20014;-91
2022/06/14 18:08:19;;;;;;;4.22;3.83;;;;;;;;;;6315021;22;19999;-92
2022/06/14 18:10:49;;;;;;;4.22;3.90;;;;;;;;;;6328217;22;20050;-82
2022/06/14 18:13:20;;;;;;;4.15;3.78;;;;;;;;;;6309770;22;20049;-91
2022/06/14 18:15:57;;;;;;;4.10;3.80;;;;;;;;;;6308106;22;20074;-91
2022/06/14 18:18:34;;;;;;;4.38;4.07;;;;;;;;;;6309182;22;20003;-84
2022/06/14 18:21:34;;;;;;;3.95;3.65;;;;;;;;;;6311744;22;20007;-90
2022/06/14 18:24:13;;;;;;;4.05;3.75;;;;;;;;;;6310144;22;20011;-95
2022/06/14 18:27:04;;;;;;;4.22;3.83;;;;;;;;;;6309553;22;20034;-85
2022/06/14 18:29:48;;;;;;;4.10;3.80;;;;;;;;;;6308945;22;20007;-85
2022/06/14 18:32:16;;;;;;;4.15;3.55;;;;;;;;;;6307474;22;20041;-87
2022/06/14 18:34:48;;;;;;;3.95;3.58;;;;;;;;;;6307413;22;20011;-87
2022/06/14 18:37:19;;;;;;;3.88;3.58;;;;;;;;;;6307702;22;20010;-88
2022/06/14 18:39:50;;;;;;;4.00;3.63;;;;;;;;;;6309558;22;20332;-86
2022/06/14 18:42:28;;;;;;;4.75;4.00;;;;;;;;;;6309388;22;20003;-87
2022/06/14 18:45:15;;;;;;;3.80;3.30;;;;;;;;;;6309302;22;20010;-87
2022/06/14 18:47:51;;;;;;;4.88;4.40;;;;;;;;;;6309377;22;20003;-88
2022/06/14 18:50:17;;;;;;;5.07;3.88;;;;;;;;;;6310030;22;20034;-89
2022/06/14 18:53:06;;;;;;;4.00;3.70;;;;;;;;;;6309503;22;19999;-86
2022/06/14 18:55:37;;;;;;;4.55;3.90;;;;;;;;;;6309560;22;20003;-89
2022/06/14 18:58:22;;;;;;;4.40;3.97;;;;;;;;;;6309304;22;20035;-88
2022/06/14 19:00:48;;;;;;;4.13;3.72;;;;;;;;;;6309469;22;20006;-88
2022/06/14 19:03:16;;;;;;;4.32;3.88;;;;;;;;;;6281741;22;20086;-88
2022/06/14 19:05:50;;;;;;;4.65;4.03;;;;;;;;;;6309320;22;19999;-88
2022/06/14 19:08:31;;;;;;;4.07;3.78;;;;;;;;;;6309426;22;19999;-90
2022/06/14 19:11:25;;;;;;;5.97;4.32;;;;;;;;;;6309234;22;19999;-87
2022/06/14 19:14:17;;;;;;;4.90;4.22;;;;;;;;;;6148726;22;20412;-86
2022/06/14 19:16:55;;;;;;;4.55;4.25;;;;;;;;;;6282462;22;20011;-88
2022/06/14 19:20:04;;;;;;;4.65;4.28;;;;;;;;;;6309289;22;20054;-90
2022/06/14 19:22:30;;;;;;;5.60;4.68;;;;;;;;;;6237357;22;20086;-88
2022/06/14 19:25:22;;;;;;;5.68;4.20;;;;;;;;;;6281675;22;20085;-87
2022/06/14 19:28:18;;;;;;;4.22;3.83;;;;;;;;;;6309267;22;20003;-85
2022/06/14 19:30:52;;;;;;;4.97;4.47;;;;;;;;;;6308903;22;20012;-85
2022/06/14 19:33:22;;;;;;;5.25;4.75;;;;;;;;;;6309075;22;20014;-84
2022/06/14 19:35:56;;;;;;;4.40;4.00;;;;;;;;;;6281616;22;20003;-84
2022/06/14 19:38:43;;;;;;;4.70;4.30;;;;;;;;;;6309325;22;20003;-84
2022/06/14 19:41:47;;;;;;;5.38;4.88;;;;;;;;;;6281584;22;20011;-86
2022/06/14 19:44:18;;;;;;;4.18;3.88;;;;;;;;;;6301735;22;20097;-85
2022/06/14 19:46:51;;;;;;;4.55;4.15;;;;;;;;;;6308909;22;20075;-85
2022/06/14 19:52:07;;;;;;;;;;;;;;;;;;6309776;22;20069;-85
2022/06/14 19:54:38;;;;;;;6.68;4.13;;;;;;;;;;6308994;22;19985;-81
2022/06/14 19:57:10;;;;;;;6.15;4.80;;;;;;;;;;6308935;22;20034;-79
2022/06/14 19:59:43;;;;;;;4.95;4.45;;;;;;;;;;6309237;22;20388;-82
2022/06/14 20:02:11;;;;;;;4.90;4.47;;;;;;;;;;6309045;22;20010;-81
2022/06/14 20:04:38;;;;;;;5.18;4.30;;;;;;;;;;6308736;22;20003;-82
2022/06/14 20:07:07;;;;;;;5.03;4.22;;;;;;;;;;6309933;22;20078;-81
2022/06/14 20:09:37;;;;;;;5.07;4.47;;;;;;;;;;6308751;22;20000;-81
2022/06/14 20:12:03;;;;;;;;;;;;;;;;;;6309365;22;20010;-82
2022/06/14 20:14:34;;;;;;;4.53;4.03;;;;;;;;;;6308568;22;20314;-81
2022/06/14 20:17:16;;;;;;;4.38;4.07;;;;;;;;;;6307240;22;20011;-81
2022/06/14 20:20:05;;;;;;;4.60;4.00;;;;;;;;;;6308538;22;20426;-80
2022/06/14 20:22:40;;;;;;;4.90;4.35;;;;;;;;;;6308343;22;20425;-81
2022/06/14 20:25:27;;;;;;;4.68;4.28;;;;;;;;;;6282342;22;20304;-82
2022/06/14 20:27:58;;;;;;;6.78;5.05;;;;;;;;;;6280463;22;20037;-82
2022/06/14 20:30:31;;;;;;;4.80;4.40;;;;;;;;;;6307940;22;20003;-81
2022/06/14 20:32:57;;;;;;;5.13;4.70;;;;;;;;;;6254735;22;20011;-80
2022/06/14 20:35:38;;;;;;;5.85;5.13;;;;;;;;;;6306549;22;20033;-80
2022/06/14 20:38:05;;;;;;;5.15;4.72;;;;;;;;;;6280516;22;20003;-83
2022/06/14 20:40:33;;;;;;;6.03;5.15;;;;;;;;;;6308454;22;20109;-84
2022/06/14 20:43:01;;;;;;;5.07;4.67;;;;;;;;;;6308612;22;19999;-87
2022/06/14 20:45:31;;;;;;;4.95;4.55;;;;;;;;;;6308196;22;20006;-88
2022/06/14 20:47:57;;;;;;;4.82;4.35;;;;;;;;;;6308114;22;20002;-87
2022/06/14 20:50:26;;;;;;;4.95;4.50;;;;;;;;;;6308314;22;20003;-87
2022/06/14 20:52:53;;;;;;;4.38;3.97;;;;;;;;;;6308726;22;20014;-89
2022/06/14 20:55:36;;;;;;;4.93;4.45;;;;;;;;;;6308321;22;20005;-90
2022/06/14 20:58:03;;;;;;;6.75;4.97;;;;;;;;;;6308009;22;20011;-90
2022/06/14 21:00:29;;;;;;;6.43;4.20;;;;;;;;;;6308420;22;19999;-88
2022/06/14 21:02:55;;;;;;;5.00;4.47;;;;;;;;;;6307758;22;20022;-90
2022/06/14 21:05:22;;;;;;;5.22;4.72;;;;;;;;;;6310770;22;20006;-89
2022/06/14 21:07:50;;;;;;;5.10;4.70;;;;;;;;;;6308192;22;20007;-85
2022/06/14 21:13:16;;;;;;;4.80;4.40;;;;;;;;;;6308691;22;20014;-89
2022/06/14 21:15:47;;;;;;;6.93;4.55;;;;;;;;;;6308412;22;20410;-90
2022/06/14 21:18:13;;;;;;;5.25;4.55;;;;;;;;;;6307969;22;19995;-89
2022/06/14 21:20:47;;;;;;;4.95;4.45;;;;;;;;;;6308253;22;20123;-87
2022/06/14 21:23:19;;;;;;;4.85;4.45;;;;;;;;;;6308161;22;20003;-88
2022/06/14 21:25:44;;;;;;;5.00;4.60;;;;;;;;;;6308457;22;20003;-88
2022/06/14 21:28:15;;;;;;;5.68;4.90;;;;;;;;;;6308148;22;20071;-85
